createdAt,value
2018-09-06T00:01:16.593Z,78.80
2018-09-06T00:03:45.416Z,77.80
2018-09-06T00:06:14.284Z,79.60
2018-09-06T00:08:43.130Z,78.70
2018-09-06T00:11:12.051Z,79.00
2018-09-06T00:13:40.929Z,81.60
2018-09-06T00:16:10.140Z,80.30
2018-09-06T00:18:38.976Z,79.90
2018-09-06T00:21:07.837Z,81.60
2018-09-06T00:23:36.668Z,78.10
2018-09-06T00:26:05.490Z,77.90
2018-09-06T00:28:34.389Z,77.10
2018-09-06T00:31:03.240Z,77.50
2018-09-06T00:33:32.040Z,78.40
2018-09-06T00:36:00.944Z,78.40
2018-09-06T00:38:29.813Z,78.50
2018-09-06T00:40:58.660Z,81.80
2018-09-06T00:43:27.537Z,80.20
2018-09-06T00:45:56.356Z,80.10
2018-09-06T00:48:25.196Z,79.60
2018-09-06T00:50:54.097Z,79.20
2018-09-06T00:53:22.923Z,80.40
2018-09-06T00:55:51.733Z,80.30
2018-09-06T00:58:20.636Z,80.50
2018-09-06T01:00:49.436Z,81.10
2018-09-06T01:03:18.240Z,81.50
2018-09-06T01:05:47.102Z,80.10
2018-09-06T01:08:16.063Z,80.90
2018-09-06T01:10:44.894Z,79.80
2018-09-06T01:13:13.774Z,79.40
2018-09-06T01:15:42.588Z,81.50
2018-09-06T01:18:11.380Z,80.50
2018-09-06T01:20:40.236Z,78.60
2018-09-06T01:23:09.039Z,79.90
2018-09-06T01:25:43.129Z,78.90
2018-09-06T01:28:11.943Z,79.40
2018-09-06T01:30:40.756Z,78.80
2018-09-06T01:33:09.618Z,78.40
2018-09-06T01:35:42.911Z,78.60
2018-09-06T01:38:11.754Z,79.90
2018-09-06T01:40:40.669Z,81.60
2018-09-06T01:43:09.480Z,79.60
2018-09-06T01:45:38.387Z,79.10
2018-09-06T01:48:07.200Z,79.40
2018-09-06T01:50:36.076Z,81.60
2018-09-06T01:53:05.005Z,79.30
2018-09-06T01:55:33.840Z,81.00
2018-09-06T01:58:02.647Z,82.70
2018-09-06T02:00:31.552Z,84.10
2018-09-06T02:03:00.832Z,80.70
2018-09-06T02:05:30.554Z,82.40
2018-09-06T02:08:00.008Z,81.50
2018-09-06T02:10:28.828Z,80.40
2018-09-06T02:12:57.639Z,80.90
2018-09-06T02:15:26.487Z,81.40
2018-09-06T02:17:55.301Z,81.80
2018-09-06T02:20:24.191Z,79.80
2018-09-06T02:22:53.500Z,82.40
2018-09-06T02:25:22.377Z,81.30
2018-09-06T02:27:51.253Z,80.40
2018-09-06T02:30:20.120Z,79.60
2018-09-06T02:32:49.001Z,80.00
2018-09-06T02:35:17.811Z,79.60
2018-09-06T02:37:46.680Z,80.40
2018-09-06T02:40:20.749Z,80.70
2018-09-06T02:42:49.639Z,78.80
2018-09-06T02:45:18.522Z,79.40
2018-09-06T02:47:52.533Z,80.00
2018-09-06T02:50:26.597Z,79.80
2018-09-06T02:52:56.014Z,80.70
2018-09-06T02:55:26.288Z,80.40
2018-09-06T02:57:55.188Z,81.20
2018-09-06T03:00:30.449Z,82.00
2018-09-06T03:02:59.263Z,81.70
2018-09-06T03:05:29.140Z,81.20
2018-09-06T03:07:59.218Z,80.80
2018-09-06T03:10:31.321Z,80.90
2018-09-06T03:13:00.213Z,80.70
2018-09-06T03:15:29.101Z,79.70
2018-09-06T03:17:57.902Z,80.30
2018-09-06T03:20:26.759Z,80.90
2018-09-06T03:22:55.669Z,81.40
2018-09-06T03:25:24.583Z,80.70
2018-09-06T03:27:53.437Z,81.70
2018-09-06T03:30:22.325Z,81.60
2018-09-06T03:32:51.257Z,80.90
2018-09-06T03:35:20.080Z,81.20
2018-09-06T03:37:49.068Z,80.70
2018-09-06T03:40:17.980Z,79.40
2018-09-06T03:42:46.908Z,80.50
2018-09-06T03:45:15.804Z,80.70
2018-09-06T03:47:45.043Z,80.90
2018-09-06T03:50:14.021Z,80.30
2018-09-06T03:52:43.727Z,80.60
2018-09-06T03:55:12.641Z,81.80
2018-09-06T03:57:45.940Z,83.70
2018-09-06T04:00:14.820Z,89.80
2018-09-06T04:02:43.872Z,88.90
2018-09-06T04:05:12.864Z,87.40
2018-09-06T04:07:41.728Z,86.60
2018-09-06T04:10:10.781Z,86.20
2018-09-06T04:12:39.704Z,86.00
2018-09-06T04:15:09.156Z,85.20
2018-09-06T04:17:38.635Z,84.30
2018-09-06T04:20:07.850Z,84.20
2018-09-06T04:22:40.932Z,84.00
2018-09-06T04:25:10.025Z,84.00
2018-09-06T04:27:38.923Z,84.00
2018-09-06T04:30:08.691Z,83.80
2018-09-06T04:32:37.657Z,83.30
2018-09-06T04:35:06.633Z,83.20
2018-09-06T04:37:36.021Z,83.10
2018-09-06T04:40:05.090Z,83.20
2018-09-06T04:42:33.948Z,83.20
2018-09-06T04:45:02.971Z,83.30
2018-09-06T04:47:31.910Z,83.00
2018-09-06T04:50:01.159Z,83.30
2018-09-06T04:52:30.023Z,83.00
2018-09-06T04:54:58.958Z,83.00
2018-09-06T04:57:27.803Z,82.80
2018-09-06T04:59:58.114Z,82.70
2018-09-06T05:02:27.025Z,82.60
2018-09-06T05:04:55.931Z,82.60
2018-09-06T05:07:24.861Z,82.30
2018-09-06T05:09:53.770Z,83.20
2018-09-06T05:12:22.651Z,84.00
2018-09-06T05:14:51.560Z,83.90
2018-09-06T05:17:20.535Z,83.00
2018-09-06T05:19:49.396Z,82.90
2018-09-06T05:22:18.277Z,82.60
2018-09-06T05:24:47.200Z,82.60
2018-09-06T05:27:16.909Z,82.40
2018-09-06T05:29:45.776Z,82.20
2018-09-06T05:32:14.731Z,82.40
2018-09-06T05:34:43.596Z,82.20
2018-09-06T05:37:12.484Z,82.30
2018-09-06T05:39:41.376Z,82.60
2018-09-06T05:42:10.265Z,82.40
2018-09-06T05:44:40.065Z,82.30
2018-09-06T05:47:09.017Z,82.30
2018-09-06T05:49:37.996Z,82.20
2018-09-06T05:52:07.846Z,81.90
2018-09-06T05:54:36.813Z,81.80
2018-09-06T05:57:05.777Z,81.80
2018-09-06T05:59:35.403Z,81.60
2018-09-06T06:02:04.342Z,82.40
2018-09-06T06:04:33.243Z,81.40
2018-09-06T06:07:02.119Z,81.30
2018-09-06T06:09:31.034Z,81.10
2018-09-06T06:11:59.888Z,81.00
2018-09-06T06:14:28.811Z,80.90
2018-09-06T06:16:57.754Z,80.80
2018-09-06T06:19:26.646Z,80.60
2018-09-06T06:21:55.504Z,80.30
2018-09-06T06:24:24.444Z,80.40
2018-09-06T06:26:53.333Z,80.20
2018-09-06T06:29:22.237Z,80.10
2018-09-06T06:31:51.346Z,79.90
2018-09-06T06:34:20.240Z,79.80
2018-09-06T06:36:49.144Z,79.70
2018-09-06T06:39:18.138Z,79.30
2018-09-06T06:41:47.009Z,79.10
2018-09-06T06:44:15.883Z,78.80
2018-09-06T06:46:44.797Z,78.70
2018-09-06T06:49:13.648Z,78.50
2018-09-06T06:51:42.537Z,78.10
2018-09-06T06:54:11.513Z,77.80
2018-09-06T06:56:40.378Z,77.60
2018-09-06T06:59:09.248Z,77.50
2018-09-06T07:01:38.191Z,77.30
2018-09-06T07:04:07.067Z,77.10
2018-09-06T07:06:35.924Z,76.70
2018-09-06T07:09:07.269Z,76.40
2018-09-06T07:11:36.153Z,76.20
2018-09-06T07:14:05.068Z,75.90
2018-09-06T07:16:33.982Z,75.70
2018-09-06T07:19:02.824Z,75.40
2018-09-06T07:21:31.751Z,75.20
2018-09-06T07:24:00.705Z,75.00
2018-09-06T07:26:29.592Z,74.90
2018-09-06T07:28:58.769Z,75.40
2018-09-06T07:31:27.726Z,74.40
2018-09-06T07:33:56.626Z,74.10
2018-09-06T07:36:25.491Z,73.90
2018-09-06T07:38:54.401Z,73.30
2018-09-06T07:41:23.399Z,73.00
2018-09-06T07:43:52.240Z,72.80
2018-09-06T07:46:21.172Z,72.50
2018-09-06T07:48:50.019Z,72.30
2018-09-06T07:51:18.902Z,72.10
2018-09-06T07:53:47.858Z,72.00
2018-09-06T07:56:16.750Z,71.90
2018-09-06T07:58:45.650Z,71.80
2018-09-06T08:01:14.549Z,71.60
2018-09-06T08:03:43.509Z,71.60
2018-09-06T08:06:12.382Z,71.60
2018-09-06T08:08:41.345Z,71.50
2018-09-06T08:11:10.229Z,71.50
2018-09-06T08:13:39.081Z,71.30
2018-09-06T08:16:08.033Z,71.10
2018-09-06T08:18:36.956Z,70.90
2018-09-06T08:21:05.915Z,70.50
2018-09-06T08:23:34.892Z,70.30
2018-09-06T08:26:03.761Z,70.00
2018-09-06T08:28:32.669Z,69.30
2018-09-06T08:31:01.839Z,68.90
2018-09-06T08:33:30.546Z,68.60
2018-09-06T08:35:59.435Z,68.60
2018-09-06T08:38:28.460Z,68.30
2018-09-06T08:40:57.387Z,68.30
2018-09-06T08:43:26.352Z,67.90
2018-09-06T08:45:55.247Z,68.00
2018-09-06T08:48:24.151Z,67.90
2018-09-06T08:50:53.008Z,67.70
2018-09-06T08:53:21.991Z,67.70
2018-09-06T08:55:51.267Z,67.30
2018-09-06T08:58:20.426Z,67.10
2018-09-06T09:00:54.524Z,66.90
2018-09-06T09:03:23.476Z,66.80
2018-09-06T09:05:52.353Z,66.40
2018-09-06T09:08:21.350Z,66.20
2018-09-06T09:10:50.201Z,65.80
2018-09-06T09:13:19.099Z,66.00
2018-09-06T09:15:48.127Z,65.60
2018-09-06T09:18:17.027Z,65.40
2018-09-06T09:20:45.907Z,65.40
2018-09-06T09:23:15.246Z,65.40
2018-09-06T09:25:44.160Z,65.20
2018-09-06T09:28:13.044Z,65.00
2018-09-06T09:30:42.313Z,64.90
2018-09-06T09:33:11.176Z,64.50
2018-09-06T09:35:40.070Z,64.30
2018-09-06T09:38:09.472Z,64.30
2018-09-06T09:40:38.319Z,64.00
2018-09-06T09:43:07.250Z,64.00
2018-09-06T09:45:36.524Z,63.70
2018-09-06T09:48:05.394Z,63.70
2018-09-06T09:53:02.230Z,63.70
2018-09-06T09:55:31.124Z,63.70
2018-09-06T09:57:59.991Z,63.50
2018-09-06T10:00:34.452Z,63.30
2018-09-06T10:03:08.505Z,63.30
2018-09-06T10:05:42.639Z,63.30
2018-09-06T10:08:16.652Z,63.50
2018-09-06T10:10:45.572Z,63.50
2018-09-06T10:13:14.550Z,63.50
2018-09-06T10:15:43.455Z,63.60
2018-09-06T10:18:12.482Z,63.60
2018-09-06T10:20:41.879Z,63.80
2018-09-06T10:23:10.783Z,63.60
2018-09-06T10:25:39.799Z,63.60
2018-09-06T10:28:08.742Z,63.40
2018-09-06T10:30:37.613Z,63.10
2018-09-06T10:33:06.585Z,62.90
2018-09-06T10:35:35.452Z,62.70
2018-09-06T10:38:04.365Z,63.00
2018-09-06T10:40:33.304Z,62.80
2018-09-06T10:43:02.261Z,63.30
2018-09-06T10:45:31.336Z,63.00
2018-09-06T10:48:00.287Z,63.00
2018-09-06T10:50:29.200Z,62.50
2018-09-06T10:52:58.068Z,62.00
2018-09-06T10:55:26.967Z,61.90
2018-09-06T10:57:55.887Z,61.70
2018-09-06T11:00:25.229Z,61.40
2018-09-06T11:02:54.233Z,61.30
2018-09-06T11:05:23.122Z,62.10
2018-09-06T11:07:52.060Z,61.90
2018-09-06T11:10:21.365Z,61.70
2018-09-06T11:12:50.660Z,61.60
2018-09-06T11:15:19.540Z,61.60
2018-09-06T11:17:48.568Z,61.60
2018-09-06T11:20:17.471Z,61.70
2018-09-06T11:22:46.423Z,61.70
2018-09-06T11:25:15.353Z,61.90
2018-09-06T11:27:44.309Z,61.90
2018-09-06T11:30:13.234Z,62.10
2018-09-06T11:32:42.206Z,62.00
2018-09-06T11:35:11.096Z,62.20
2018-09-06T11:37:39.981Z,62.40
2018-09-06T11:40:08.901Z,62.40
2018-09-06T11:42:37.865Z,62.30
2018-09-06T11:45:06.945Z,62.60
2018-09-06T11:47:35.966Z,62.50
2018-09-06T11:50:04.862Z,62.60
2018-09-06T11:52:33.745Z,62.40
2018-09-06T11:55:02.648Z,62.60
2018-09-06T11:57:31.539Z,62.60
2018-09-06T12:00:00.841Z,62.70
2018-09-06T12:02:29.773Z,62.70
2018-09-06T12:04:58.658Z,62.90
2018-09-06T12:07:27.590Z,63.00
2018-09-06T12:09:56.524Z,62.90
2018-09-06T12:12:25.413Z,62.90
2018-09-06T12:14:54.293Z,63.00
2018-09-06T12:17:23.229Z,63.10
2018-09-06T12:19:52.097Z,63.10
2018-09-06T12:22:20.956Z,63.30
2018-09-06T12:24:50.020Z,63.40
2018-09-06T12:27:18.893Z,63.50
2018-09-06T12:29:47.704Z,64.30
2018-09-06T12:32:18.747Z,65.20
2018-09-06T12:34:48.593Z,64.90
2018-09-06T12:37:17.483Z,63.00
2018-09-06T12:39:47.061Z,61.70
2018-09-06T12:42:15.979Z,61.80
2018-09-06T12:44:44.866Z,60.80
2018-09-06T12:47:13.768Z,61.90
2018-09-06T12:49:42.873Z,60.30
2018-09-06T12:52:12.152Z,60.30
2018-09-06T12:54:41.036Z,61.60
2018-09-06T12:57:10.001Z,61.60
2018-09-06T12:59:39.023Z,62.60
2018-09-06T13:02:07.895Z,62.20
2018-09-06T13:04:36.750Z,61.00
2018-09-06T13:07:05.700Z,61.20
2018-09-06T13:09:34.639Z,61.50
2018-09-06T13:12:03.549Z,62.00
2018-09-06T13:14:32.452Z,61.70
2018-09-06T13:17:01.368Z,60.90
2018-09-06T13:19:30.317Z,60.50
2018-09-06T13:21:59.262Z,60.90
2018-09-06T13:24:28.568Z,62.60
2018-09-06T13:26:57.472Z,60.90
2018-09-06T13:29:26.397Z,61.30
2018-09-06T13:31:55.303Z,61.10
2018-09-06T13:34:24.176Z,60.30
2018-09-06T13:36:53.097Z,60.60
2018-09-06T13:39:22.805Z,60.00
2018-09-06T13:41:51.690Z,61.50
2018-09-06T13:44:20.781Z,62.00
2018-09-06T13:46:49.645Z,61.70
2018-09-06T13:49:18.885Z,62.40
2018-09-06T13:51:47.804Z,61.80
2018-09-06T13:54:16.722Z,61.80
2018-09-06T13:56:45.600Z,61.80
2018-09-06T13:59:14.613Z,61.80
2018-09-06T14:01:43.513Z,61.50
2018-09-06T14:04:12.518Z,61.00
2018-09-06T14:06:41.413Z,61.30
2018-09-06T14:09:10.290Z,61.20
2018-09-06T14:11:39.243Z,60.80
2018-09-06T14:14:08.154Z,60.30
2018-09-06T14:16:37.149Z,61.60
2018-09-06T14:19:06.284Z,61.90
2018-09-06T14:21:35.585Z,60.70
2018-09-06T14:24:04.487Z,62.20
2018-09-06T14:26:33.372Z,62.20
2018-09-06T14:29:02.251Z,61.20
2018-09-06T14:31:31.452Z,61.80
2018-09-06T14:34:00.737Z,60.60
2018-09-06T14:36:29.546Z,61.20
2018-09-06T14:38:59.264Z,60.90
2018-09-06T14:41:28.236Z,61.10
2018-09-06T14:43:57.307Z,60.70
2018-09-06T14:46:28.012Z,60.30
2018-09-06T14:48:58.020Z,60.00
2018-09-06T14:51:26.867Z,60.30
2018-09-06T14:53:56.813Z,60.80
2018-09-06T14:56:25.877Z,60.50
2018-09-06T14:58:54.928Z,60.30
2018-09-06T15:01:23.842Z,60.20
2018-09-06T15:03:52.965Z,60.70
2018-09-06T15:06:22.585Z,60.70
2018-09-06T15:08:51.544Z,60.60
2018-09-06T15:11:20.591Z,60.30
2018-09-06T15:13:49.608Z,60.40
2018-09-06T15:16:18.614Z,60.70
2018-09-06T15:18:47.453Z,60.70
2018-09-06T15:21:16.589Z,61.10
2018-09-06T15:23:45.473Z,61.30
2018-09-06T15:26:14.989Z,61.80
2018-09-06T15:28:43.889Z,61.30
2018-09-06T15:31:12.789Z,60.90
2018-09-06T15:33:41.675Z,61.10
2018-09-06T15:36:10.591Z,61.40
2018-09-06T15:38:39.773Z,61.60
2018-09-06T15:41:08.720Z,62.00
2018-09-06T15:43:37.619Z,61.70
2018-09-06T15:46:06.752Z,61.90
2018-09-06T15:48:35.599Z,62.10
2018-09-06T15:51:07.473Z,62.20
2018-09-06T15:53:36.303Z,62.40
2018-09-06T15:56:05.151Z,62.60
2018-09-06T15:58:34.088Z,62.60
2018-09-06T16:01:02.996Z,62.50
2018-09-06T16:03:31.875Z,62.10
2018-09-06T16:06:00.783Z,62.50
2018-09-06T16:08:29.806Z,62.80
2018-09-06T16:10:58.648Z,62.80
2018-09-06T16:13:27.665Z,62.70
2018-09-06T16:15:56.543Z,62.80
2018-09-06T16:18:25.611Z,63.00
2018-09-06T16:20:54.548Z,63.00
2018-09-06T16:23:23.404Z,63.00
2018-09-06T16:25:52.223Z,63.10
2018-09-06T16:28:21.205Z,63.20
2018-09-06T16:30:50.459Z,63.30
2018-09-06T16:33:20.027Z,63.20
2018-09-06T16:35:55.748Z,63.30
2018-09-06T16:38:26.136Z,63.30
2018-09-06T16:40:55.100Z,63.50
2018-09-06T16:43:24.121Z,63.40
2018-09-06T16:45:52.968Z,63.50
2018-09-06T16:48:21.820Z,63.70
2018-09-06T16:50:50.880Z,63.90
2018-09-06T16:53:19.729Z,64.10
2018-09-06T16:55:48.597Z,64.20
2018-09-06T16:58:17.957Z,64.10
2018-09-06T17:00:46.864Z,63.90
2018-09-06T17:03:15.731Z,65.30
2018-09-06T17:05:44.661Z,64.60
2018-09-06T17:08:14.817Z,64.70
2018-09-06T17:10:43.815Z,64.60
2018-09-06T17:13:13.017Z,64.70
2018-09-06T17:15:41.969Z,64.80
2018-09-06T17:18:10.953Z,64.80
2018-09-06T17:20:39.872Z,64.80
2018-09-06T17:23:08.921Z,64.80
2018-09-06T17:25:37.927Z,64.70
2018-09-06T17:28:09.084Z,64.50
2018-09-06T17:30:37.954Z,64.30
2018-09-06T17:33:06.990Z,63.90
2018-09-06T17:35:35.882Z,61.50
2018-09-06T17:38:04.791Z,62.20
2018-09-06T17:40:33.688Z,64.00
2018-09-06T17:43:05.262Z,62.50
2018-09-06T17:45:34.223Z,63.50
2018-09-06T17:48:05.311Z,64.40
2018-09-06T17:50:34.606Z,63.90
2018-09-06T17:53:05.242Z,63.70
2018-09-06T17:55:34.340Z,64.60
2018-09-06T17:58:03.290Z,65.20
2018-09-06T18:00:32.255Z,64.30
2018-09-06T18:03:01.912Z,64.10
2018-09-06T18:05:31.143Z,63.70
2018-09-06T18:08:00.505Z,63.90
2018-09-06T18:10:29.468Z,64.00
2018-09-06T18:12:58.417Z,64.30
2018-09-06T18:15:27.368Z,65.00
2018-09-06T18:17:56.432Z,64.20
2018-09-06T18:20:25.439Z,64.90
2018-09-06T18:22:54.417Z,64.20
2018-09-06T18:25:23.522Z,67.20
2018-09-06T18:27:52.529Z,66.30
2018-09-06T18:30:21.638Z,67.50
2018-09-06T18:32:50.822Z,65.00
2018-09-06T18:35:19.816Z,64.90
2018-09-06T18:37:48.702Z,65.00
2018-09-06T18:40:17.655Z,65.10
2018-09-06T18:42:46.713Z,65.50
2018-09-06T18:45:15.629Z,66.20
2018-09-06T18:47:44.634Z,66.20
2018-09-06T18:50:13.647Z,66.10
2018-09-06T18:52:42.514Z,66.40
2018-09-06T18:55:11.653Z,67.30
2018-09-06T18:57:40.626Z,67.20
2018-09-06T19:00:09.522Z,65.80
2018-09-06T19:02:38.424Z,66.40
2018-09-06T19:05:07.731Z,67.30
2018-09-06T19:07:36.628Z,67.20
2018-09-06T19:10:05.772Z,68.80
2018-09-06T19:12:34.680Z,68.70
2018-09-06T19:15:03.731Z,68.60
2018-09-06T19:17:32.667Z,69.20
2018-09-06T19:20:01.533Z,67.90
2018-09-06T19:22:30.484Z,68.80
2018-09-06T19:25:00.170Z,67.40
2018-09-06T19:27:29.116Z,68.30
2018-09-06T19:29:57.971Z,67.70
2018-09-06T19:32:26.994Z,68.00
2018-09-06T19:34:55.948Z,68.10
2018-09-06T19:37:24.817Z,69.20
2018-09-06T19:39:53.706Z,70.70
2018-09-06T19:42:22.687Z,68.30
2018-09-06T19:44:51.607Z,67.90
2018-09-06T19:47:20.491Z,69.00
2018-09-06T19:49:49.403Z,68.40
2018-09-06T19:52:18.302Z,68.30
2018-09-06T19:54:47.253Z,68.60
2018-09-06T19:57:16.287Z,69.20
2018-09-06T19:59:45.259Z,69.20
2018-09-06T20:02:14.108Z,70.00
2018-09-06T20:04:43.029Z,70.10
2018-09-06T20:07:11.919Z,70.10
2018-09-06T20:09:40.878Z,70.70
2018-09-06T20:12:09.866Z,72.30
2018-09-06T20:14:38.914Z,71.50
2018-09-06T20:17:08.047Z,70.20
2018-09-06T20:19:37.079Z,69.80
2018-09-06T20:22:07.961Z,72.50
2018-09-06T20:24:37.069Z,71.30
2018-09-06T20:27:06.095Z,70.70
2018-09-06T20:29:35.121Z,73.50
2018-09-06T20:32:04.064Z,73.10
2018-09-06T20:34:33.362Z,71.50
2018-09-06T20:37:02.270Z,72.40
2018-09-06T20:39:31.161Z,71.60
2018-09-06T20:42:00.229Z,72.30
2018-09-06T20:44:29.180Z,72.20
2018-09-06T20:46:58.421Z,72.20
2018-09-06T20:49:27.409Z,73.30
2018-09-06T20:51:56.282Z,72.30
2018-09-06T20:54:25.162Z,71.50
2018-09-06T20:56:54.091Z,73.10
2018-09-06T20:59:23.027Z,71.60
2018-09-06T21:01:51.904Z,72.40
2018-09-06T21:04:20.841Z,72.60
2018-09-06T21:06:49.777Z,71.90
2018-09-06T21:09:19.105Z,73.50
2018-09-06T21:11:48.094Z,73.70
2018-09-06T21:14:16.999Z,73.10
2018-09-06T21:16:45.860Z,73.20
2018-09-06T21:19:14.837Z,73.60
2018-09-06T21:21:43.718Z,73.60
2018-09-06T21:24:12.584Z,73.60
2018-09-06T21:26:41.492Z,72.90
2018-09-06T21:29:10.357Z,75.10
2018-09-06T21:31:39.244Z,73.80
2018-09-06T21:34:08.173Z,74.10
2018-09-06T21:36:37.632Z,73.90
2018-09-06T21:39:09.784Z,74.60
2018-09-06T21:41:39.065Z,74.50
2018-09-06T21:44:08.279Z,74.50
2018-09-06T21:46:37.355Z,74.30
2018-09-06T21:49:06.450Z,74.30
2018-09-06T21:51:35.354Z,73.70
2018-09-06T21:54:04.273Z,74.20
2018-09-06T21:56:33.167Z,73.40
2018-09-06T21:59:02.217Z,73.70
2018-09-06T22:01:31.144Z,73.30
2018-09-06T22:04:07.121Z,73.30
2018-09-06T22:06:36.865Z,73.40
2018-09-06T22:09:10.119Z,73.60
2018-09-06T22:11:39.084Z,74.50
2018-09-06T22:14:08.004Z,74.20
2018-09-06T22:16:37.001Z,74.50
2018-09-06T22:19:05.888Z,74.50
2018-09-06T22:21:34.868Z,75.20
2018-09-06T22:24:04.086Z,75.00
2018-09-06T22:26:33.013Z,73.30
2018-09-06T22:29:01.879Z,73.60
2018-09-06T22:31:30.816Z,73.80
2018-09-06T22:33:59.691Z,73.70
2018-09-06T22:36:28.628Z,74.00
2018-09-06T22:38:57.556Z,74.00
2018-09-06T22:41:26.456Z,73.90
2018-09-06T22:43:55.332Z,74.10
2018-09-06T22:46:25.228Z,74.30
2018-09-06T22:48:54.117Z,74.50
2018-09-06T22:51:23.036Z,74.50
2018-09-06T22:53:51.960Z,74.70
2018-09-06T22:56:20.839Z,74.60
2018-09-06T22:58:50.063Z,74.80
2018-09-06T23:01:19.065Z,74.80
2018-09-06T23:03:52.173Z,75.80
2018-09-06T23:06:21.477Z,75.20
2018-09-06T23:08:50.329Z,75.60
2018-09-06T23:11:19.214Z,75.80
2018-09-06T23:13:48.126Z,75.60
2018-09-06T23:16:17.007Z,76.00
2018-09-06T23:18:45.888Z,76.10
2018-09-06T23:21:14.808Z,76.40
2018-09-06T23:23:43.741Z,76.00
2018-09-06T23:26:12.609Z,76.00
2018-09-06T23:28:41.574Z,76.00
2018-09-06T23:31:10.432Z,76.00
2018-09-06T23:33:39.396Z,75.50
2018-09-06T23:36:08.321Z,75.50
2018-09-06T23:38:37.311Z,75.80
2018-09-06T23:41:06.168Z,75.70
2018-09-06T23:43:35.109Z,75.60
2018-09-06T23:46:04.066Z,73.80
2018-09-06T23:48:32.955Z,74.50
2018-09-06T23:51:01.860Z,75.70
2018-09-06T23:53:30.768Z,75.20
2018-09-06T23:56:00.191Z,75.10
2018-09-06T23:58:29.111Z,75.20
